sensor_id;sensor_type;location;lat;lon;timestamp;temperature;humidity
63976;DHT22;50167;47.958;21.780;2023-02-12T00:01:19;5.18;57.63
63976;DHT22;50167;47.958;21.780;2023-02-12T00:03:46;5.25;54.54
63976;DHT22;50167;47.958;21.780;2023-02-12T00:06:13;5.05;56.26
63976;DHT22;50167;47.958;21.780;2023-02-12T00:08:39;5.29;54.62
63976;DHT22;50167;47.958;21.780;2023-02-12T00:11:15;5.07;56.60
63976;DHT22;50167;47.958;21.780;2023-02-12T00:13:42;5.24;54.50
63976;DHT22;50167;47.958;21.780;2023-02-12T00:16:15;5.08;55.17
63976;DHT22;50167;47.958;21.780;2023-02-12T00:18:42;5.10;54.16
63976;DHT22;50167;47.958;21.780;2023-02-12T00:21:09;5.33;57.22
63976;DHT22;50167;47.958;21.780;2023-02-12T00:23:37;5.05;54.18
63976;DHT22;50167;47.958;21.780;2023-02-12T00:26:13;5.18;56.59
63976;DHT22;50167;47.958;21.780;2023-02-12T00:28:40;5.04;54.25
63976;DHT22;50167;47.958;21.780;2023-02-12T00:31:14;5.35;58.04
63976;DHT22;50167;47.958;21.780;2023-02-12T00:33:41;4.95;54.38
63976;DHT22;50167;47.958;21.780;2023-02-12T00:36:08;5.07;55.50
63976;DHT22;50167;47.958;21.780;2023-02-12T00:38:35;5.26;54.33
63976;DHT22;50167;47.958;21.780;2023-02-12T00:41:01;4.88;55.27
63976;DHT22;50167;47.958;21.780;2023-02-12T00:43:27;5.45;55.18
63976;DHT22;50167;47.958;21.780;2023-02-12T00:45:54;4.91;54.54
63976;DHT22;50167;47.958;21.780;2023-02-12T00:48:20;5.42;56.23
63976;DHT22;50167;47.958;21.780;2023-02-12T00:50:47;4.97;53.87
63976;DHT22;50167;47.958;21.780;2023-02-12T00:53:14;5.42;57.74
63976;DHT22;50167;47.958;21.780;2023-02-12T00:55:40;5.08;53.29
63976;DHT22;50167;47.958;21.780;2023-02-12T00:58:07;5.19;55.62
63976;DHT22;50167;47.958;21.780;2023-02-12T01:00:34;5.15;53.98
63976;DHT22;50167;47.958;21.780;2023-02-12T01:03:00;5.24;56.75
63976;DHT22;50167;47.958;21.780;2023-02-12T01:05:26;5.19;53.77
63976;DHT22;50167;47.958;21.780;2023-02-12T01:07:53;5.16;55.46
63976;DHT22;50167;47.958;21.780;2023-02-12T01:10:20;5.25;53.71
63976;DHT22;50167;47.958;21.780;2023-02-12T01:12:47;5.18;57.01
63976;DHT22;50167;47.958;21.780;2023-02-12T01:15:15;5.21;53.66
63976;DHT22;50167;47.958;21.780;2023-02-12T01:17:42;5.31;55.16
63976;DHT22;50167;47.958;21.780;2023-02-12T01:20:13;5.18;52.99
63976;DHT22;50167;47.958;21.780;2023-02-12T01:22:42;5.22;56.12
63976;DHT22;50167;47.958;21.780;2023-02-12T01:25:08;5.11;53.80
63976;DHT22;50167;47.958;21.780;2023-02-12T01:27:35;5.22;55.67
63976;DHT22;50167;47.958;21.780;2023-02-12T01:30:01;5.19;53.35
63976;DHT22;50167;47.958;21.780;2023-02-12T01:32:28;5.05;56.61
63976;DHT22;50167;47.958;21.780;2023-02-12T01:34:54;5.33;54.16
63976;DHT22;50167;47.958;21.780;2023-02-12T01:37:20;4.95;54.89
63976;DHT22;50167;47.958;21.780;2023-02-12T01:39:46;5.42;55.35
63976;DHT22;50167;47.958;21.780;2023-02-12T01:42:14;4.86;55.09
63976;DHT22;50167;47.958;21.780;2023-02-12T01:47:31;4.93;53.90
63976;DHT22;50167;47.958;21.780;2023-02-12T01:49:58;5.31;56.36
63976;DHT22;50167;47.958;21.780;2023-02-12T01:52:33;5.15;53.43
63976;DHT22;50167;47.958;21.780;2023-02-12T01:55:04;5.35;56.88
63976;DHT22;50167;47.958;21.780;2023-02-12T01:57:33;5.19;50.91
63976;DHT22;50167;47.958;21.780;2023-02-12T02:00:05;5.16;56.06
63976;DHT22;50167;47.958;21.780;2023-02-12T02:02:32;5.32;53.08
63976;DHT22;50167;47.958;21.780;2023-02-12T02:05:02;5.16;55.46
63976;DHT22;50167;47.958;21.780;2023-02-12T02:07:29;5.08;53.91
63976;DHT22;50167;47.958;21.780;2023-02-12T02:09:56;5.22;56.08
63976;DHT22;50167;47.958;21.780;2023-02-12T02:12:25;5.16;53.15
63976;DHT22;50167;47.958;21.780;2023-02-12T02:15:11;5.22;56.86
63976;DHT22;50167;47.958;21.780;2023-02-12T02:38:50;5.21;52.88
63976;DHT22;50167;47.958;21.780;2023-02-12T02:41:34;5.45;57.16
63976;DHT22;50167;47.958;21.780;2023-02-12T02:43:58;5.05;52.05
63976;DHT22;50167;47.958;21.780;2023-02-12T02:46:50;5.26;56.00
63976;DHT22;50167;47.958;21.780;2023-02-12T02:49:06;5.19;53.12
63976;DHT22;50167;47.958;21.780;2023-02-12T02:51:41;5.35;57.42
63976;DHT22;50167;47.958;21.780;2023-02-12T02:54:18;5.28;52.78
63976;DHT22;50167;47.958;21.780;2023-02-12T02:56:48;5.22;56.72
63976;DHT22;50167;47.958;21.780;2023-02-12T02:59:27;5.24;53.78
63976;DHT22;50167;47.958;21.780;2023-02-12T03:02:17;5.08;56.19
63976;DHT22;50167;47.958;21.780;2023-02-12T03:04:39;5.25;54.16
63976;DHT22;50167;47.958;21.780;2023-02-12T03:07:16;5.25;57.39
63976;DHT22;50167;47.958;21.780;2023-02-12T03:09:53;5.18;53.11
63976;DHT22;50167;47.958;21.780;2023-02-12T03:12:33;5.31;57.64
63976;DHT22;50167;47.958;21.780;2023-02-12T03:15:21;5.25;53.01
63976;DHT22;50167;47.958;21.780;2023-02-12T03:17:47;5.25;57.29
63976;DHT22;50167;47.958;21.780;2023-02-12T03:20:24;5.29;53.36
63976;DHT22;50167;47.958;21.780;2023-02-12T03:22:57;5.12;56.76
63976;DHT22;50167;47.958;21.780;2023-02-12T03:25:33;5.35;54.16
63976;DHT22;50167;47.958;21.780;2023-02-12T03:28:18;5.14;57.19
63976;DHT22;50167;47.958;21.780;2023-02-12T03:30:52;5.36;53.84
63976;DHT22;50167;47.958;21.780;2023-02-12T03:36:03;5.25;54.44
63976;DHT22;50167;47.958;21.780;2023-02-12T03:38:40;5.18;56.31
63976;DHT22;50167;47.958;21.780;2023-02-12T03:41:39;5.24;53.89
63976;DHT22;50167;47.958;21.780;2023-02-12T03:44:13;5.41;58.08
63976;DHT22;50167;47.958;21.780;2023-02-12T03:47:15;5.10;53.41
63976;DHT22;50167;47.958;21.780;2023-02-12T03:50:10;5.35;55.89
63976;DHT22;50167;47.958;21.780;2023-02-12T03:52:36;5.01;53.81
63976;DHT22;50167;47.958;21.780;2023-02-12T03:55:04;5.43;57.69
63976;DHT22;50167;47.958;21.780;2023-02-12T03:57:36;5.03;54.04
63976;DHT22;50167;47.958;21.780;2023-02-12T04:00:08;5.45;57.63
63976;DHT22;50167;47.958;21.780;2023-02-12T04:02:34;5.07;54.03
63976;DHT22;50167;47.958;21.780;2023-02-12T04:05:06;5.49;57.40
63976;DHT22;50167;47.958;21.780;2023-02-12T04:07:34;5.07;53.55
63976;DHT22;50167;47.958;21.780;2023-02-12T04:10:02;5.32;57.90
63976;DHT22;50167;47.958;21.780;2023-02-12T04:12:56;5.21;54.11
63976;DHT22;50167;47.958;21.780;2023-02-12T04:18:19;5.11;54.54
63976;DHT22;50167;47.958;21.780;2023-02-12T04:20:57;5.46;58.34
63976;DHT22;50167;47.958;21.780;2023-02-12T04:27:00;5.35;57.47
63976;DHT22;50167;47.958;21.780;2023-02-12T04:29:43;4.97;55.58
63976;DHT22;50167;47.958;21.780;2023-02-12T04:32:33;5.38;57.49
63976;DHT22;50167;47.958;21.780;2023-02-12T04:37:42;5.41;56.06
63976;DHT22;50167;47.958;21.780;2023-02-12T04:40:11;4.97;56.18
63976;DHT22;50167;47.958;21.780;2023-02-12T04:42:45;5.33;55.71
63976;DHT22;50167;47.958;21.780;2023-02-12T04:45:21;5.07;56.17
63976;DHT22;50167;47.958;21.780;2023-02-12T04:47:48;5.33;55.48
63976;DHT22;50167;47.958;21.780;2023-02-12T04:50:15;5.10;57.34
63976;DHT22;50167;47.958;21.780;2023-02-12T04:52:41;5.29;55.36
63976;DHT22;50167;47.958;21.780;2023-02-12T04:55:07;5.00;57.74
63976;DHT22;50167;47.958;21.780;2023-02-12T04:57:34;5.21;55.88
63976;DHT22;50167;47.958;21.780;2023-02-12T05:00:00;5.31;56.41
63976;DHT22;50167;47.958;21.780;2023-02-12T05:02:26;5.10;55.65
63976;DHT22;50167;47.958;21.780;2023-02-12T05:04:53;5.28;57.66
63976;DHT22;50167;47.958;21.780;2023-02-12T05:07:19;5.10;55.56
63976;DHT22;50167;47.958;21.780;2023-02-12T05:09:45;5.47;59.49
63976;DHT22;50167;47.958;21.780;2023-02-12T05:12:11;5.04;55.15
63976;DHT22;50167;47.958;21.780;2023-02-12T05:14:38;5.45;57.89
63976;DHT22;50167;47.958;21.780;2023-02-12T05:17:04;5.07;55.48
63976;DHT22;50167;47.958;21.780;2023-02-12T05:19:31;5.43;59.70
63976;DHT22;50167;47.958;21.780;2023-02-12T05:21:57;5.15;55.60
63976;DHT22;50167;47.958;21.780;2023-02-12T05:24:23;5.25;58.94
63976;DHT22;50167;47.958;21.780;2023-02-12T05:26:50;5.24;56.54
63976;DHT22;50167;47.958;21.780;2023-02-12T05:29:17;5.25;58.75
63976;DHT22;50167;47.958;21.780;2023-02-12T05:31:43;5.22;56.69
63976;DHT22;50167;47.958;21.780;2023-02-12T05:34:11;5.18;58.74
63976;DHT22;50167;47.958;21.780;2023-02-12T05:36:38;5.21;56.28
63976;DHT22;50167;47.958;21.780;2023-02-12T05:39:05;5.42;60.50
63976;DHT22;50167;47.958;21.780;2023-02-12T05:41:32;5.19;56.40
63976;DHT22;50167;47.958;21.780;2023-02-12T05:44:04;5.32;59.03
63976;DHT22;50167;47.958;21.780;2023-02-12T05:46:30;5.31;56.05
63976;DHT22;50167;47.958;21.780;2023-02-12T05:48:57;5.12;59.58
63976;DHT22;50167;47.958;21.780;2023-02-12T05:51:25;5.22;57.02
63976;DHT22;50167;47.958;21.780;2023-02-12T05:53:59;5.07;60.07
63976;DHT22;50167;47.958;21.780;2023-02-12T05:56:32;5.39;57.78
63976;DHT22;50167;47.958;21.780;2023-02-12T05:59:07;5.05;58.64
63976;DHT22;50167;47.958;21.780;2023-02-12T06:01:39;5.36;57.29
63976;DHT22;50167;47.958;21.780;2023-02-12T06:04:12;5.15;58.67
63976;DHT22;50167;47.958;21.780;2023-02-12T06:06:36;5.24;56.87
63976;DHT22;50167;47.958;21.780;2023-02-12T06:09:05;5.14;58.19
63976;DHT22;50167;47.958;21.780;2023-02-12T06:11:32;5.39;57.06
63976;DHT22;50167;47.958;21.780;2023-02-12T06:14:05;5.10;59.01
63976;DHT22;50167;47.958;21.780;2023-02-12T06:16:33;5.36;57.48
63976;DHT22;50167;47.958;21.780;2023-02-12T06:19:02;5.08;58.66
63976;DHT22;50167;47.958;21.780;2023-02-12T06:21:30;5.19;57.15
63976;DHT22;50167;47.958;21.780;2023-02-12T06:23:57;5.45;60.47
63976;DHT22;50167;47.958;21.780;2023-02-12T06:26:24;5.11;56.59
63976;DHT22;50167;47.958;21.780;2023-02-12T06:28:51;5.36;58.11
63976;DHT22;50167;47.958;21.780;2023-02-12T06:31:28;5.19;56.54
63976;DHT22;50167;47.958;21.780;2023-02-12T06:33:57;5.43;59.76
63976;DHT22;50167;47.958;21.780;2023-02-12T06:36:24;5.26;56.56
63976;DHT22;50167;47.958;21.780;2023-02-12T06:38:51;5.26;59.51
63976;DHT22;50167;47.958;21.780;2023-02-12T06:41:20;5.22;57.23
63976;DHT22;50167;47.958;21.780;2023-02-12T06:43:45;5.22;58.62
63976;DHT22;50167;47.958;21.780;2023-02-12T06:46:13;5.28;57.33
63976;DHT22;50167;47.958;21.780;2023-02-12T06:48:39;5.19;59.78
63976;DHT22;50167;47.958;21.780;2023-02-12T06:51:13;5.39;57.72
63976;DHT22;50167;47.958;21.780;2023-02-12T06:53:36;5.15;60.03
63976;DHT22;50167;47.958;21.780;2023-02-12T06:56:05;5.41;57.74
63976;DHT22;50167;47.958;21.780;2023-02-12T06:58:32;5.12;58.59
63976;DHT22;50167;47.958;21.780;2023-02-12T07:01:17;5.31;58.02
63976;DHT22;50167;47.958;21.780;2023-02-12T07:03:50;5.35;59.23
63976;DHT22;50167;47.958;21.780;2023-02-12T07:06:18;5.26;58.01
63976;DHT22;50167;47.958;21.780;2023-02-12T07:08:44;5.21;60.75
63976;DHT22;50167;47.958;21.780;2023-02-12T07:11:11;5.43;57.91
63976;DHT22;50167;47.958;21.780;2023-02-12T07:13:40;5.10;59.62
63976;DHT22;50167;47.958;21.780;2023-02-12T07:16:12;5.47;58.18
63976;DHT22;50167;47.958;21.780;2023-02-12T07:18:39;5.12;58.79
63976;DHT22;50167;47.958;21.780;2023-02-12T07:21:07;5.58;57.93
63976;DHT22;50167;47.958;21.780;2023-02-12T07:23:34;5.08;57.83
63976;DHT22;50167;47.958;21.780;2023-02-12T07:26:09;5.63;58.97
63976;DHT22;50167;47.958;21.780;2023-02-12T07:28:35;5.15;58.08
63976;DHT22;50167;47.958;21.780;2023-02-12T07:33:39;5.22;57.54
63976;DHT22;50167;47.958;21.780;2023-02-12T07:36:09;5.62;60.74
63976;DHT22;50167;47.958;21.780;2023-02-12T07:38:36;6.77;61.01
63976;DHT22;50167;47.958;21.780;2023-02-12T07:41:17;7.14;55.63
63976;DHT22;50167;47.958;21.780;2023-02-12T07:43:46;6.01;57.18
63976;DHT22;50167;47.958;21.780;2023-02-12T07:46:17;5.18;57.97
63976;DHT22;50167;47.958;21.780;2023-02-12T07:48:45;5.67;60.77
63976;DHT22;50167;47.958;21.780;2023-02-12T07:51:15;5.38;58.42
63976;DHT22;50167;47.958;21.780;2023-02-12T07:53:44;5.46;61.34
63976;DHT22;50167;47.958;21.780;2023-02-12T07:56:21;5.62;59.01
63976;DHT22;50167;47.958;21.780;2023-02-12T07:58:50;5.11;61.09
63976;DHT22;50167;47.958;21.780;2023-02-12T08:01:24;5.58;59.56
63976;DHT22;50167;47.958;21.780;2023-02-12T08:03:57;5.11;60.33
63976;DHT22;50167;47.958;21.780;2023-02-12T08:06:27;5.63;60.18
63976;DHT22;50167;47.958;21.780;2023-02-12T08:08:56;5.22;59.55
63976;DHT22;50167;47.958;21.780;2023-02-12T08:11:24;5.63;60.87
63976;DHT22;50167;47.958;21.780;2023-02-12T08:13:51;5.45;59.77
63976;DHT22;50167;47.958;21.780;2023-02-12T08:23:22;5.19;61.73
63976;DHT22;50167;47.958;21.780;2023-02-12T08:25:49;5.63;59.50
63976;DHT22;50167;47.958;21.780;2023-02-12T08:28:15;5.31;61.29
63976;DHT22;50167;47.958;21.780;2023-02-12T08:30:41;5.47;61.76
63976;DHT22;50167;47.958;21.780;2023-02-12T08:33:07;6.72;61.04
63976;DHT22;50167;47.958;21.780;2023-02-12T08:35:33;8.05;57.38
63976;DHT22;50167;47.958;21.780;2023-02-12T08:37:59;7.96;53.43
63976;DHT22;50167;47.958;21.780;2023-02-12T08:40:25;7.01;54.64
63976;DHT22;50167;47.958;21.780;2023-02-12T08:42:52;6.33;55.76
63976;DHT22;50167;47.958;21.780;2023-02-12T08:45:18;5.93;56.34
63976;DHT22;50167;47.958;21.780;2023-02-12T08:47:46;5.73;59.25
63976;DHT22;50167;47.958;21.780;2023-02-12T08:50:13;5.54;57.74
63976;DHT22;50167;47.958;21.780;2023-02-12T08:52:39;5.36;60.83
63976;DHT22;50167;47.958;21.780;2023-02-12T08:55:06;5.36;61.44
63976;DHT22;50167;47.958;21.780;2023-02-12T08:57:32;5.60;60.69
63976;DHT22;50167;47.958;21.780;2023-02-12T09:00:00;5.36;60.47
63976;DHT22;50167;47.958;21.780;2023-02-12T09:02:27;5.28;61.80
63976;DHT22;50167;47.958;21.780;2023-02-12T09:04:54;5.66;60.73
63976;DHT22;50167;47.958;21.780;2023-02-12T09:07:20;5.43;58.82
63976;DHT22;50167;47.958;21.780;2023-02-12T09:09:46;5.28;61.59
63976;DHT22;50167;47.958;21.780;2023-02-12T09:12:12;5.56;60.40
63976;DHT22;50167;47.958;21.780;2023-02-12T09:14:39;5.21;60.22
63976;DHT22;50167;47.958;21.780;2023-02-12T09:17:05;5.59;60.69
63976;DHT22;50167;47.958;21.780;2023-02-12T09:19:31;5.42;60.99
63976;DHT22;50167;47.958;21.780;2023-02-12T09:21:57;5.26;61.38
63976;DHT22;50167;47.958;21.780;2023-02-12T09:24:25;5.70;60.73
63976;DHT22;50167;47.958;21.780;2023-02-12T09:26:53;5.56;62.56
63976;DHT22;50167;47.958;21.780;2023-02-12T09:29:19;6.42;62.23
63976;DHT22;50167;47.958;21.780;2023-02-12T09:31:45;8.14;59.80
63976;DHT22;50167;47.958;21.780;2023-02-12T09:34:11;8.81;55.73
63976;DHT22;50167;47.958;21.780;2023-02-12T09:36:38;8.76;55.34
63976;DHT22;50167;47.958;21.780;2023-02-12T09:39:04;9.20;54.56
63976;DHT22;50167;47.958;21.780;2023-02-12T09:44:49;10.34;49.77
63976;DHT22;50167;47.958;21.780;2023-02-12T09:47:32;11.02;50.52
63976;DHT22;50167;47.958;21.780;2023-02-12T09:52:48;12.19;45.70
63976;DHT22;50167;47.958;21.780;2023-02-12T09:55:16;12.19;45.59
63976;DHT22;50167;47.958;21.780;2023-02-12T09:57:44;12.38;46.34
63976;DHT22;50167;47.958;21.780;2023-02-12T10:00:21;12.86;46.63
63976;DHT22;50167;47.958;21.780;2023-02-12T10:02:45;13.48;45.74
63976;DHT22;50167;47.958;21.780;2023-02-12T10:05:40;13.62;42.04
63976;DHT22;50167;47.958;21.780;2023-02-12T10:08:31;13.51;43.30
63976;DHT22;50167;47.958;21.780;2023-02-12T10:23:05;10.56;47.03
63976;DHT22;50167;47.958;21.780;2023-02-12T10:25:59;9.94;48.72
63976;DHT22;50167;47.958;21.780;2023-02-12T10:28:37;9.50;50.08
63976;DHT22;50167;47.958;21.780;2023-02-12T10:31:29;9.43;50.79
63976;DHT22;50167;47.958;21.780;2023-02-12T10:33:56;9.97;50.61
63976;DHT22;50167;47.958;21.780;2023-02-12T10:36:42;10.76;48.29
63976;DHT22;50167;47.958;21.780;2023-02-12T10:44:18;11.92;45.41
63976;DHT22;50167;47.958;21.780;2023-02-12T10:46:45;12.74;45.38
63976;DHT22;50167;47.958;21.780;2023-02-12T10:49:15;13.93;41.91
63976;DHT22;50167;47.958;21.780;2023-02-12T10:54:39;15.30;38.57
63976;DHT22;50167;47.958;21.780;2023-02-12T10:57:18;16.09;38.80
63976;DHT22;50167;47.958;21.780;2023-02-12T10:59:45;16.44;36.58
63976;DHT22;50167;47.958;21.780;2023-02-12T11:02:31;16.50;36.44
63976;DHT22;50167;47.958;21.780;2023-02-12T11:05:00;16.39;34.08
63976;DHT22;50167;47.958;21.780;2023-02-12T11:11:35;17.53;35.27
63976;DHT22;50167;47.958;21.780;2023-02-12T11:14:19;17.87;32.36
63976;DHT22;50167;47.958;21.780;2023-02-12T11:16:56;18.41;32.94
63976;DHT22;50167;47.958;21.780;2023-02-12T11:19:31;18.58;33.09
63976;DHT22;50167;47.958;21.780;2023-02-12T11:22:10;17.73;31.55
63976;DHT22;50167;47.958;21.780;2023-02-12T11:24:43;16.75;33.37
63976;DHT22;50167;47.958;21.780;2023-02-12T11:27:21;16.80;34.27
63976;DHT22;50167;47.958;21.780;2023-02-12T11:30:11;16.43;34.20
63976;DHT22;50167;47.958;21.780;2023-02-12T11:32:22;16.01;34.92
63976;DHT22;50167;47.958;21.780;2023-02-12T11:35:16;15.15;34.61
63976;DHT22;50167;47.958;21.780;2023-02-12T11:37:46;13.55;37.31
63976;DHT22;50167;47.958;21.780;2023-02-12T11:40:23;12.37;39.15
63976;DHT22;50167;47.958;21.780;2023-02-12T11:42:54;11.25;41.07
63976;DHT22;50167;47.958;21.780;2023-02-12T11:45:41;10.21;42.85
63976;DHT22;50167;47.958;21.780;2023-02-12T11:47:56;9.29;43.40
63976;DHT22;50167;47.958;21.780;2023-02-12T11:50:31;8.89;45.55
63976;DHT22;50167;47.958;21.780;2023-02-12T11:53:07;9.90;44.83
63976;DHT22;50167;47.958;21.780;2023-02-12T11:55:37;11.47;41.78
63976;DHT22;50167;47.958;21.780;2023-02-12T11:58:20;12.56;37.06
63976;DHT22;50167;47.958;21.780;2023-02-12T12:00:57;13.14;35.80
63976;DHT22;50167;47.958;21.780;2023-02-12T12:09:40;13.55;33.89
63976;DHT22;50167;47.958;21.780;2023-02-12T12:18:15;14.05;33.53
63976;DHT22;50167;47.958;21.780;2023-02-12T12:21:33;14.47;33.20
63976;DHT22;50167;47.958;21.780;2023-02-12T12:27:14;15.89;30.58
63976;DHT22;50167;47.958;21.780;2023-02-12T12:29:57;15.93;30.48
63976;DHT22;50167;47.958;21.780;2023-02-12T12:32:24;15.57;31.08
63976;DHT22;50167;47.958;21.780;2023-02-12T12:34:51;15.89;30.88
63976;DHT22;50167;47.958;21.780;2023-02-12T12:40:41;16.25;29.55
63976;DHT22;50167;47.958;21.780;2023-02-12T12:43:11;15.93;29.22
63976;DHT22;50167;47.958;21.780;2023-02-12T13:06:21;15.15;31.00
63976;DHT22;50167;47.958;21.780;2023-02-12T13:09:02;15.26;29.48
63976;DHT22;50167;47.958;21.780;2023-02-12T13:14:46;14.86;31.04
63976;DHT22;50167;47.958;21.780;2023-02-12T13:17:19;14.60;31.76
63976;DHT22;50167;47.958;21.780;2023-02-12T13:22:46;15.56;30.78
63976;DHT22;50167;47.958;21.780;2023-02-12T13:28:26;15.58;29.30
63976;DHT22;50167;47.958;21.780;2023-02-12T13:30:49;15.70;29.30
63976;DHT22;50167;47.958;21.780;2023-02-12T13:33:47;15.54;29.36
63976;DHT22;50167;47.958;21.780;2023-02-12T13:36:13;15.20;29.54
63976;DHT22;50167;47.958;21.780;2023-02-12T13:38:57;14.95;29.75
63976;DHT22;50167;47.958;21.780;2023-02-12T13:41:24;14.53;30.31
63976;DHT22;50167;47.958;21.780;2023-02-12T13:44:21;14.09;31.35
63976;DHT22;50167;47.958;21.780;2023-02-12T13:46:55;14.16;31.22
63976;DHT22;50167;47.958;21.780;2023-02-12T13:49:52;14.31;31.69
63976;DHT22;50167;47.958;21.780;2023-02-12T13:57:51;13.65;32.80
63976;DHT22;50167;47.958;21.780;2023-02-12T14:03:25;12.00;34.45
63976;DHT22;50167;47.958;21.780;2023-02-12T14:06:18;10.99;35.57
63976;DHT22;50167;47.958;21.780;2023-02-12T14:09:06;9.94;37.41
63976;DHT22;50167;47.958;21.780;2023-02-12T14:11:24;9.17;38.85
63976;DHT22;50167;47.958;21.780;2023-02-12T14:13:54;8.57;39.80
63976;DHT22;50167;47.958;21.780;2023-02-12T14:16:35;8.18;40.64
63976;DHT22;50167;47.958;21.780;2023-02-12T14:25:01;6.88;44.04
63976;DHT22;50167;47.958;21.780;2023-02-12T14:27:47;6.72;44.75
63976;DHT22;50167;47.958;21.780;2023-02-12T14:30:37;6.55;45.50
63976;DHT22;50167;47.958;21.780;2023-02-12T14:33:17;6.33;46.14
63976;DHT22;50167;47.958;21.780;2023-02-12T14:35:46;6.19;46.20
63976;DHT22;50167;47.958;21.780;2023-02-12T14:40:49;6.11;46.70
63976;DHT22;50167;47.958;21.780;2023-02-12T14:48:58;5.91;47.15
63976;DHT22;50167;47.958;21.780;2023-02-12T14:52:01;5.84;47.42
63976;DHT22;50167;47.958;21.780;2023-02-12T14:57:33;5.65;48.09
63976;DHT22;50167;47.958;21.780;2023-02-12T15:00:25;5.56;48.32
63976;DHT22;50167;47.958;21.780;2023-02-12T15:03:16;5.59;48.91
63976;DHT22;50167;47.958;21.780;2023-02-12T15:05:53;5.71;48.54
63976;DHT22;50167;47.958;21.780;2023-02-12T15:08:54;5.76;48.35
63976;DHT22;50167;47.958;21.780;2023-02-12T15:11:41;5.71;48.27
63976;DHT22;50167;47.958;21.780;2023-02-12T15:14:19;5.58;48.63
63976;DHT22;50167;47.958;21.780;2023-02-12T15:16:59;5.35;49.12
63976;DHT22;50167;47.958;21.780;2023-02-12T15:25:29;5.22;48.86
63976;DHT22;50167;47.958;21.780;2023-02-12T15:28:02;5.62;49.42
63976;DHT22;50167;47.958;21.780;2023-02-12T15:30:32;5.31;48.09
63976;DHT22;50167;47.958;21.780;2023-02-12T15:33:03;5.52;48.10
63976;DHT22;50167;47.958;21.780;2023-02-12T15:35:33;5.50;47.40
63976;DHT22;50167;47.958;21.780;2023-02-12T15:38:02;5.19;48.22
63976;DHT22;50167;47.958;21.780;2023-02-12T15:40:30;5.59;48.04
63976;DHT22;50167;47.958;21.780;2023-02-12T15:43:03;5.22;47.93
63976;DHT22;50167;47.958;21.780;2023-02-12T15:45:33;5.54;47.95
63976;DHT22;50167;47.958;21.780;2023-02-12T15:48:12;5.26;48.21
63976;DHT22;50167;47.958;21.780;2023-02-12T15:57:32;5.66;50.75
63976;DHT22;50167;47.958;21.780;2023-02-12T16:00:06;5.25;48.68
63976;DHT22;50167;47.958;21.780;2023-02-12T16:02:33;5.54;53.11
63976;DHT22;50167;47.958;21.780;2023-02-12T16:05:02;5.41;49.29
63976;DHT22;50167;47.958;21.780;2023-02-12T16:07:33;5.26;51.09
63976;DHT22;50167;47.958;21.780;2023-02-12T16:10:01;5.53;49.76
63976;DHT22;50167;47.958;21.780;2023-02-12T16:12:30;5.08;49.04
63976;DHT22;50167;47.958;21.780;2023-02-12T16:14:58;5.63;52.16
63976;DHT22;50167;47.958;21.780;2023-02-12T16:17:30;5.12;49.49
63976;DHT22;50167;47.958;21.780;2023-02-12T16:27:19;5.35;50.55
63976;DHT22;50167;47.958;21.780;2023-02-12T16:29:49;5.41;53.96
63976;DHT22;50167;47.958;21.780;2023-02-12T16:37:45;5.50;50.87
63976;DHT22;50167;47.958;21.780;2023-02-12T16:50:57;5.21;51.65
63976;DHT22;50167;47.958;21.780;2023-02-12T16:53:38;5.49;50.18
63976;DHT22;50167;47.958;21.780;2023-02-12T16:56:11;5.16;49.57
63976;DHT22;50167;47.958;21.780;2023-02-12T16:58:38;5.38;47.61
63976;DHT22;50167;47.958;21.780;2023-02-12T17:01:04;5.16;49.98
63976;DHT22;50167;47.958;21.780;2023-02-12T17:03:30;5.38;47.77
63976;DHT22;50167;47.958;21.780;2023-02-12T17:05:56;5.08;49.38
63976;DHT22;50167;47.958;21.780;2023-02-12T17:08:23;5.42;48.25
63976;DHT22;50167;47.958;21.780;2023-02-12T17:10:50;5.10;50.73
63976;DHT22;50167;47.958;21.780;2023-02-12T17:13:18;5.45;50.20
63976;DHT22;50167;47.958;21.780;2023-02-12T17:15:53;5.08;51.67
63976;DHT22;50167;47.958;21.780;2023-02-12T17:18:20;5.50;50.75
63976;DHT22;50167;47.958;21.780;2023-02-12T17:21:06;5.05;50.93
63976;DHT22;50167;47.958;21.780;2023-02-12T17:23:28;5.49;50.95
63976;DHT22;50167;47.958;21.780;2023-02-12T17:25:55;5.03;49.97
63976;DHT22;50167;47.958;21.780;2023-02-12T17:28:21;5.47;51.76
63976;DHT22;50167;47.958;21.780;2023-02-12T17:30:49;5.01;51.32
63976;DHT22;50167;47.958;21.780;2023-02-12T17:33:15;5.47;50.70
63976;DHT22;50167;47.958;21.780;2023-02-12T17:35:41;4.95;49.39
63976;DHT22;50167;47.958;21.780;2023-02-12T17:38:08;5.47;51.41
63976;DHT22;50167;47.958;21.780;2023-02-12T17:40:38;5.03;50.58
63976;DHT22;50167;47.958;21.780;2023-02-12T17:43:05;5.46;51.00
63976;DHT22;50167;47.958;21.780;2023-02-12T17:45:31;5.03;51.00
63976;DHT22;50167;47.958;21.780;2023-02-12T17:47:58;5.47;50.71
63976;DHT22;50167;47.958;21.780;2023-02-12T17:50:24;5.00;49.56
63976;DHT22;50167;47.958;21.780;2023-02-12T17:52:51;5.45;50.51
63976;DHT22;50167;47.958;21.780;2023-02-12T17:55:17;4.94;48.99
63976;DHT22;50167;47.958;21.780;2023-02-12T17:57:44;5.50;51.73
63976;DHT22;50167;47.958;21.780;2023-02-12T18:00:12;4.95;49.31
63976;DHT22;50167;47.958;21.780;2023-02-12T18:02:38;5.45;49.01
63976;DHT22;50167;47.958;21.780;2023-02-12T18:05:05;4.98;49.31
63976;DHT22;50167;47.958;21.780;2023-02-12T18:07:33;5.47;51.28
63976;DHT22;50167;47.958;21.780;2023-02-12T18:10:00;4.93;48.72
63976;DHT22;50167;47.958;21.780;2023-02-12T18:12:26;5.52;52.13
63976;DHT22;50167;47.958;21.780;2023-02-12T18:14:57;5.12;48.00
63976;DHT22;50167;47.958;21.780;2023-02-12T18:17:24;5.41;53.02
63976;DHT22;50167;47.958;21.780;2023-02-12T18:19:51;5.28;48.66
63976;DHT22;50167;47.958;21.780;2023-02-12T18:22:17;5.18;52.56
63976;DHT22;50167;47.958;21.780;2023-02-12T18:24:44;5.38;49.73
63976;DHT22;50167;47.958;21.780;2023-02-12T18:27:12;5.03;50.42
63976;DHT22;50167;47.958;21.780;2023-02-12T18:29:39;5.38;49.25
63976;DHT22;50167;47.958;21.780;2023-02-12T18:32:05;4.95;48.45
63976;DHT22;50167;47.958;21.780;2023-02-12T18:34:32;5.33;47.47
63976;DHT22;50167;47.958;21.780;2023-02-12T18:36:59;5.00;48.83
63976;DHT22;50167;47.958;21.780;2023-02-12T18:39:27;5.46;48.93
63976;DHT22;50167;47.958;21.780;2023-02-12T18:41:55;4.97;48.29
63976;DHT22;50167;47.958;21.780;2023-02-12T18:44:21;5.50;50.50
63976;DHT22;50167;47.958;21.780;2023-02-12T18:46:48;5.00;49.44
63976;DHT22;50167;47.958;21.780;2023-02-12T18:49:14;5.43;49.34
63976;DHT22;50167;47.958;21.780;2023-02-12T18:51:41;4.94;49.11
63976;DHT22;50167;47.958;21.780;2023-02-12T18:54:11;5.46;50.77
63976;DHT22;50167;47.958;21.780;2023-02-12T18:56:40;4.97;49.95
63976;DHT22;50167;47.958;21.780;2023-02-12T18:59:11;5.42;51.42